createdAt,value
2022-12-31T00:00:38.725Z,986
2022-12-31T00:05:58.283Z,986
2022-12-31T00:11:17.813Z,986
2022-12-31T00:16:37.181Z,985.9
2022-12-31T00:21:56.783Z,986
2022-12-31T00:27:15.963Z,986
2022-12-31T00:32:35.694Z,986.1
2022-12-31T00:37:54.632Z,986.2
2022-12-31T00:43:14.108Z,986.3
2022-12-31T00:48:32.816Z,986.2
2022-12-31T00:53:52.484Z,986.2
2022-12-31T00:59:11.475Z,986.4
2022-12-31T01:04:30.394Z,986.3
2022-12-31T01:09:49.494Z,986.3
2022-12-31T01:15:08.747Z,986.4
2022-12-31T01:20:27.975Z,986.6
2022-12-31T01:25:47.464Z,986.5
2022-12-31T01:31:06.978Z,986.7
2022-12-31T01:36:26.663Z,986.7
2022-12-31T01:41:45.157Z,986.7
2022-12-31T01:47:03.983Z,986.8
2022-12-31T01:52:22.962Z,986.8
2022-12-31T01:57:42.424Z,986.8
2022-12-31T02:03:02.522Z,986.7
2022-12-31T02:09:36.697Z,986.8
2022-12-31T02:13:41.335Z,986.8
2022-12-31T02:19:00.757Z,986.7
2022-12-31T02:24:18.973Z,986.8
2022-12-31T02:29:38.169Z,986.8
2022-12-31T02:34:57.107Z,986.6
2022-12-31T02:40:15.988Z,986.8
2022-12-31T02:45:34.855Z,986.9
2022-12-31T02:50:53.869Z,986.9
2022-12-31T02:56:12.724Z,986.8
2022-12-31T03:01:32.169Z,986.9
2022-12-31T03:06:51.561Z,986.8
2022-12-31T03:12:10.968Z,986.7
2022-12-31T03:17:30.214Z,986.8
2022-12-31T03:22:49.082Z,986.9
2022-12-31T03:28:08.509Z,986.9
2022-12-31T03:33:27.930Z,987
2022-12-31T03:38:51.151Z,986.9
2022-12-31T03:44:06.085Z,986.9
2022-12-31T03:49:25.086Z,986.9
2022-12-31T03:54:45.057Z,986.9
2022-12-31T04:00:04.391Z,987
2022-12-31T04:05:24.107Z,987.1
2022-12-31T04:10:42.132Z,987.1
2022-12-31T04:16:01.268Z,987
2022-12-31T04:21:20.562Z,987.1
2022-12-31T04:26:39.862Z,987.1
2022-12-31T04:31:59.264Z,987.2
2022-12-31T04:37:18.862Z,987.2
2022-12-31T04:42:37.810Z,987.3
2022-12-31T04:47:57.318Z,987.2
2022-12-31T04:53:16.396Z,987.2
2022-12-31T04:58:35.725Z,987.2
2022-12-31T05:03:56.151Z,987.2
2022-12-31T05:09:14.451Z,987.1
2022-12-31T05:14:34.137Z,987.2
2022-12-31T05:19:52.805Z,987.3
2022-12-31T05:25:11.756Z,987.3
2022-12-31T05:30:31.392Z,987.4
2022-12-31T05:35:51.229Z,987.5
2022-12-31T05:41:10.857Z,987.6
2022-12-31T05:46:30.235Z,987.6
2022-12-31T05:51:49.273Z,987.7
2022-12-31T05:57:08.988Z,987.8
2022-12-31T06:02:28.291Z,987.9
2022-12-31T06:07:47.615Z,988
2022-12-31T06:13:07.195Z,987.9
2022-12-31T06:18:25.952Z,987.8
2022-12-31T06:23:44.709Z,987.9
2022-12-31T06:29:03.490Z,987.9
2022-12-31T06:34:22.843Z,987.9
2022-12-31T06:39:41.906Z,988
2022-12-31T06:45:01.159Z,988.2
2022-12-31T06:50:20.782Z,988.1
2022-12-31T06:55:40.240Z,988.2
2022-12-31T07:00:59.579Z,988.3
2022-12-31T07:06:18.529Z,988.3
2022-12-31T07:11:37.986Z,988.4
2022-12-31T07:16:56.929Z,988.4
2022-12-31T07:22:15.729Z,988.5
2022-12-31T07:27:34.923Z,988.5
2022-12-31T07:32:53.984Z,988.5
2022-12-31T07:38:12.816Z,988.3
2022-12-31T07:43:32.301Z,988.5
2022-12-31T07:48:51.798Z,988.6
2022-12-31T07:54:14.039Z,988.6
2022-12-31T07:59:29.902Z,988.6
2022-12-31T08:04:49.910Z,988.6
2022-12-31T08:10:11.275Z,988.7
2022-12-31T08:15:30.463Z,988.7
2022-12-31T08:20:47.363Z,988.4
2022-12-31T08:26:07.009Z,988.7
2022-12-31T08:31:25.995Z,988.8
2022-12-31T08:36:46.302Z,988.8
2022-12-31T08:42:05.162Z,989
2022-12-31T08:47:24.065Z,989.1
2022-12-31T08:52:43.394Z,989.1
2022-12-31T08:58:02.675Z,989.3
2022-12-31T09:03:22.053Z,989.4
2022-12-31T09:08:41.106Z,989.5
2022-12-31T09:14:00.655Z,989.4
2022-12-31T09:19:19.691Z,989.3
2022-12-31T09:24:38.670Z,989.4
2022-12-31T09:29:58.394Z,989.5
2022-12-31T09:35:17.756Z,989.4
2022-12-31T09:40:37.300Z,989.5
2022-12-31T09:45:56.599Z,989.5
2022-12-31T09:51:17.120Z,989.5
2022-12-31T09:56:34.779Z,989.4
2022-12-31T10:01:54.412Z,989.4
2022-12-31T10:07:13.812Z,989.4
2022-12-31T10:12:33.198Z,989.5
2022-12-31T10:17:51.338Z,989.6
2022-12-31T10:23:10.508Z,989.6
2022-12-31T10:28:30.701Z,989.6
2022-12-31T10:33:49.883Z,989.6
2022-12-31T10:39:14.315Z,989.7
2022-12-31T10:44:28.096Z,989.5
2022-12-31T10:49:47.219Z,989.5
2022-12-31T10:55:06.679Z,989.5
2022-12-31T11:00:25.601Z,989.5
2022-12-31T11:05:44.921Z,989.5
2022-12-31T11:11:04.513Z,989.4
2022-12-31T11:16:23.514Z,989.4
2022-12-31T11:21:43.118Z,989.4
2022-12-31T11:27:02.171Z,989.3
2022-12-31T11:32:21.184Z,989.2
2022-12-31T11:37:40.217Z,989.2
2022-12-31T11:42:59.193Z,989.4
2022-12-31T11:48:29.969Z,989.3
2022-12-31T11:58:56.797Z,989.3
2022-12-31T12:04:15.935Z,989.4
2022-12-31T12:09:34.952Z,989.4
2022-12-31T12:14:54.311Z,989.5
2022-12-31T12:20:13.495Z,989.3
2022-12-31T12:25:32.439Z,989.4
2022-12-31T12:30:51.973Z,989.3
2022-12-31T12:36:10.813Z,989.2
2022-12-31T12:41:30.028Z,989.2
2022-12-31T12:46:48.890Z,989.1
2022-12-31T12:53:23.063Z,989
2022-12-31T12:57:28.460Z,988.9
2022-12-31T13:02:46.947Z,988.9
2022-12-31T13:08:05.850Z,988.8
2022-12-31T13:13:25.320Z,988.8
2022-12-31T13:18:44.785Z,988.7
2022-12-31T13:24:03.662Z,989
2022-12-31T13:29:22.844Z,988.9
2022-12-31T13:29:48.891Z,988.9
2022-12-31T13:35:07.880Z,989
2022-12-31T13:40:27.503Z,988.9
2022-12-31T13:45:46.889Z,988.9
2022-12-31T13:51:05.601Z,989
2022-12-31T13:56:25.084Z,989
2022-12-31T14:01:45.266Z,988.9
2022-12-31T14:07:04.812Z,988.9
2022-12-31T14:12:24.007Z,988.8
2022-12-31T14:17:42.063Z,988.9
2022-12-31T14:23:01.363Z,988.9
2022-12-31T14:28:20.390Z,988.9
2022-12-31T14:33:39.543Z,989
2022-12-31T14:38:58.287Z,988.9
2022-12-31T14:44:17.084Z,988.9
2022-12-31T14:49:36.031Z,989
2022-12-31T14:54:55.416Z,988.8
2022-12-31T15:00:14.573Z,988.9
2022-12-31T15:05:34.154Z,988.9
2022-12-31T15:10:52.989Z,989
2022-12-31T15:16:11.913Z,989
2022-12-31T15:21:31.245Z,989
2022-12-31T15:26:50.136Z,989
2022-12-31T15:32:09.081Z,989.1
2022-12-31T15:37:28.640Z,989.1
2022-12-31T15:42:50.178Z,989.1
2022-12-31T15:48:07.670Z,989.1
2022-12-31T15:53:26.866Z,989.2
2022-12-31T15:58:45.812Z,989.3
2022-12-31T16:04:04.728Z,989.3
2022-12-31T16:09:23.528Z,989.3
2022-12-31T16:14:42.493Z,989.3
2022-12-31T16:20:01.913Z,989.3
2022-12-31T16:25:31.793Z,989.3
2022-12-31T16:30:40.579Z,989.4
2022-12-31T16:36:00.007Z,989.4
2022-12-31T16:41:19.434Z,989.4
2022-12-31T16:46:38.860Z,989.4
2022-12-31T16:51:57.580Z,989.3
2022-12-31T16:57:17.216Z,989.3
2022-12-31T17:02:36.224Z,989.3
2022-12-31T17:07:54.952Z,989.5
2022-12-31T17:13:27.526Z,989.4
2022-12-31T17:18:34.062Z,989.5
2022-12-31T17:23:53.632Z,989.4
2022-12-31T17:29:12.618Z,989.4
2022-12-31T17:34:31.530Z,989.5
2022-12-31T17:39:50.590Z,989.5
2022-12-31T17:45:09.408Z,989.5
2022-12-31T17:50:28.580Z,989.6
2022-12-31T17:55:47.494Z,989.6
2022-12-31T18:01:06.350Z,989.7
2022-12-31T18:06:25.753Z,989.6
2022-12-31T18:11:44.910Z,989.7
2022-12-31T18:17:04.473Z,989.6
2022-12-31T18:22:23.880Z,989.7
2022-12-31T18:27:42.665Z,989.8
2022-12-31T18:33:02.319Z,989.8
2022-12-31T18:38:22.069Z,989.9
2022-12-31T18:43:41.697Z,989.9
2022-12-31T18:49:00.830Z,989.9
2022-12-31T18:54:19.824Z,989.9
2022-12-31T18:59:38.600Z,989.9
2022-12-31T19:04:57.879Z,990
2022-12-31T19:10:17.553Z,990
2022-12-31T19:15:37.098Z,990
2022-12-31T19:20:56.639Z,990
2022-12-31T19:26:16.048Z,990.1
2022-12-31T19:31:35.652Z,990.1
2022-12-31T19:36:54.912Z,990.2
2022-12-31T19:42:14.155Z,990.2
2022-12-31T19:47:33.161Z,990.3
2022-12-31T19:52:52.357Z,990.3
2022-12-31T19:58:11.860Z,990.4
2022-12-31T20:03:31.475Z,990.4
2022-12-31T20:08:50.455Z,990.4
2022-12-31T20:14:09.789Z,990.5
2022-12-31T20:19:28.826Z,990.4
2022-12-31T20:24:47.772Z,990.3
2022-12-31T20:30:07.016Z,990.2
2022-12-31T20:35:25.787Z,990.3
2022-12-31T20:40:47.028Z,990.2
2022-12-31T20:46:04.767Z,990.3
2022-12-31T20:51:23.106Z,990.3
2022-12-31T20:56:42.368Z,990.3
2022-12-31T21:02:21.866Z,990.3
2022-12-31T21:07:21.440Z,990.3
2022-12-31T21:12:41.410Z,990.3
2022-12-31T21:17:59.696Z,990.4
2022-12-31T21:23:18.904Z,990.5
2022-12-31T21:28:37.814Z,990.4
2022-12-31T21:33:57.375Z,990.4
2022-12-31T21:39:16.231Z,990.4
2022-12-31T21:44:35.273Z,990.5
2022-12-31T21:49:54.932Z,990.5
2022-12-31T21:55:14.323Z,990.6
2022-12-31T22:00:42.157Z,990.7
2022-12-31T22:05:53.305Z,990.6
2022-12-31T22:11:12.531Z,990.6
2022-12-31T22:16:31.346Z,990.7
2022-12-31T22:21:50.430Z,990.7
2022-12-31T22:27:28.012Z,990.7
2022-12-31T22:32:28.969Z,990.8
2022-12-31T22:37:56.692Z,990.9
2022-12-31T22:43:07.193Z,991
2022-12-31T22:48:26.863Z,991.1
2022-12-31T22:53:45.935Z,991.2
2022-12-31T22:59:05.234Z,991.1
2022-12-31T23:04:24.858Z,991.2
2022-12-31T23:09:43.534Z,991.2
2022-12-31T23:15:03.055Z,991.3
2022-12-31T23:20:22.023Z,991.3
2022-12-31T23:25:40.940Z,991.3
2022-12-31T23:30:59.815Z,991.4
2022-12-31T23:36:19.177Z,991.5
2022-12-31T23:41:37.994Z,991.4
2022-12-31T23:46:56.754Z,991.5
2022-12-31T23:52:15.403Z,991.5
2022-12-31T23:57:34.863Z,991.6
